Time;durP1;ratioP1;P1;durP2;ratioP2;P2;SDS_P1;SDS_P2;PMS_P1;PMS_P2;Temp;Humidity;BMP_temperature;BMP_pressure;BME280_temperature;BME280_humidity;BME280_pressure;Samples;Min_cycle;Max_cycle;Signal;HPM_P1;HPM_P2
2022/02/12 00:01:57;;;;;;;;;;;1.50;99.90;;;;;;5032745;28;20385;-76
2022/02/12 00:04:22;;;;;;;;;;;1.50;99.90;;;;;;5034102;28;19947;-76
2022/02/12 00:06:48;;;;;;;;;;;1.40;99.90;;;;;;5016142;28;20379;-76
2022/02/12 00:09:14;;;;;;;;;;;1.30;99.90;;;;;;5016287;28;19916;-76
2022/02/12 00:11:39;;;;;;;;;;;1.20;99.90;;;;;;5016245;28;20368;-76
2022/02/12 00:14:05;;;;;;;;;;;1.30;99.90;;;;;;5033702;28;19909;-76
2022/02/12 00:16:30;;;;;;;;;;;1.40;99.90;;;;;;5033725;28;19913;-76
2022/02/12 00:18:56;;;;;;;;;;;1.50;99.90;;;;;;5032608;28;19971;-76
2022/02/12 00:21:24;;;;;;;;;;;1.50;99.90;;;;;;4999974;28;20312;-76
2022/02/12 00:23:50;;;;;;;;;;;1.40;99.90;;;;;;5033403;28;19909;-76
2022/02/12 00:26:16;;;;;;;;;;;1.30;99.90;;;;;;5034029;28;19916;-76
2022/02/12 00:28:42;;;;;;;;;;;1.50;99.90;;;;;;5016152;28;19909;-76
2022/02/12 00:31:10;;;;;;;;;;;1.50;99.90;;;;;;5015956;28;19963;-76
2022/02/12 00:33:35;;;;;;;;;;;1.50;99.90;;;;;;5031737;28;19909;-76
2022/02/12 00:36:01;;;;;;;;;;;1.40;99.90;;;;;;5032899;28;20288;-76
2022/02/12 00:38:27;;;;;;;;;;;1.30;99.90;;;;;;5032197;28;19913;-76
2022/02/12 00:40:52;;;;;;;;;;;1.10;99.90;;;;;;4999121;28;19992;-76
2022/02/12 00:43:18;;;;;;;;;;;0.90;99.90;;;;;;5015367;28;19909;-76
2022/02/12 00:45:46;;;;;;;;;;;0.80;99.90;;;;;;5031695;28;20298;-76
2022/02/12 00:48:12;;;;;;;;;;;0.80;99.90;;;;;;5031720;28;19948;-76
2022/02/12 00:50:37;;;;;;;;;;;0.90;99.90;;;;;;5015284;28;20021;-76
2022/02/12 00:53:03;;;;;;;;;;;1.10;99.90;;;;;;5015332;28;19909;-76
2022/02/12 00:55:29;;;;;;;;;;;1.20;99.90;;;;;;5032583;28;19919;-76
2022/02/12 00:57:54;;;;;;;;;;;1.20;99.90;;;;;;5033052;28;19914;-76
2022/02/12 01:00:20;;;;;;;;;;;1.20;99.90;;;;;;5032663;28;19917;-76
2022/02/12 01:02:46;;;;;;;;;;;1.20;99.90;;;;;;5032698;28;19913;-76
2022/02/12 01:05:11;;;;;;;;;;;1.20;99.90;;;;;;5032825;28;19915;-76
2022/02/12 01:07:37;;;;;;;;;;;1.30;99.90;;;;;;4998767;28;19967;-76
2022/02/12 01:10:03;;;;;;;;;;;1.50;99.90;;;;;;5015237;28;19909;-76
2022/02/12 01:12:29;;;;;;;;;;;1.50;99.90;;;;;;5032783;28;19915;-76
2022/02/12 01:14:54;;;;;;;;;;;1.50;99.90;;;;;;5032843;28;19913;-76
2022/02/12 01:17:20;;;;;;;;;;;1.50;99.90;;;;;;5031428;28;20430;-76
2022/02/12 01:19:49;;;;;;;;;;;1.30;99.90;;;;;;5031954;28;20285;-76
2022/02/12 01:22:18;;;;;;;;;;;1.40;99.90;;;;;;5014749;28;19913;-76
2022/02/12 01:24:44;;;;;;;;;;;1.40;99.90;;;;;;4999264;28;19932;-76
2022/02/12 01:27:10;;;;;;;;;;;1.30;99.90;;;;;;5015042;28;19910;-76
2022/02/12 01:29:36;;;;;;;;;;;1.30;99.90;;;;;;4998918;28;19917;-76
2022/02/12 01:32:04;;;;;;;;;;;1.20;99.90;;;;;;5014650;28;20004;-76
2022/02/12 01:34:31;;;;;;;;;;;1.20;99.90;;;;;;4998101;28;20387;-76
2022/02/12 01:36:56;;;;;;;;;;;1.30;99.90;;;;;;5031456;28;19913;-76
2022/02/12 01:39:22;;;;;;;;;;;1.20;99.90;;;;;;4998845;28;20380;-76
2022/02/12 01:41:48;;;;;;;;;;;1.30;99.90;;;;;;5032605;28;19949;-76
2022/02/12 01:44:13;;;;;;;;;;;1.30;99.90;;;;;;5014870;28;19989;-76
2022/02/12 01:46:39;;;;;;;;;;;1.20;99.90;;;;;;5017647;28;19909;-76
2022/02/12 01:49:05;;;;;;;;;;;1.30;99.90;;;;;;5018551;28;19913;-76
2022/02/12 01:51:31;;;;;;;;;;;1.30;99.90;;;;;;5018713;28;19963;-76
2022/02/12 01:53:57;;;;;;;;;;;1.30;99.90;;;;;;5036164;28;19913;-76
2022/02/12 01:56:23;;;;;;;;;;;1.30;99.90;;;;;;5018280;28;19913;-76
2022/02/12 01:58:48;;;;;;;;;;;1.20;99.90;;;;;;5036049;28;19988;-76
2022/02/12 02:01:14;;;;;;;;;;;1.20;99.90;;;;;;5034979;28;19909;-76
2022/02/12 02:03:40;;;;;;;;;;;1.20;99.90;;;;;;5018459;28;19967;-77
2022/02/12 02:06:05;;;;;;;;;;;1.20;99.90;;;;;;5002113;28;20292;-76
2022/02/12 02:08:31;;;;;;;;;;;1.30;99.90;;;;;;5034937;28;20048;-76
2022/02/12 02:10:57;;;;;;;;;;;1.30;99.90;;;;;;5018430;28;19920;-76
2022/02/12 02:13:27;;;;;;;;;;;1.20;99.90;;;;;;5018385;28;19916;-76
2022/02/12 02:15:53;;;;;;;;;;;1.00;99.90;;;;;;5018091;28;20015;-76
2022/02/12 02:18:18;;;;;;;;;;;1.00;99.90;;;;;;5018016;28;19963;-76
2022/02/12 02:20:44;;;;;;;;;;;0.90;99.90;;;;;;5017956;28;19909;-76
2022/02/12 02:23:10;;;;;;;;;;;0.90;99.90;;;;;;5017696;28;19909;-76
2022/02/12 02:25:36;;;;;;;;;;;0.90;99.90;;;;;;5035708;28;19909;-76
2022/02/12 02:28:02;;;;;;;;;;;1.00;99.90;;;;;;5017976;28;19916;-76
2022/02/12 02:30:27;;;;;;;;;;;0.90;99.90;;;;;;5034137;28;20008;-76
2022/02/12 02:32:54;;;;;;;;;;;0.80;99.90;;;;;;5018004;28;19923;-76
2022/02/12 02:35:21;;;;;;;;;;;0.90;99.90;;;;;;5001754;28;19951;-76
2022/02/12 02:37:47;;;;;;;;;;;0.90;99.90;;;;;;5035515;28;19917;-76
2022/02/12 02:40:14;;;;;;;;;;;1.00;99.90;;;;;;5035665;28;20000;-76
2022/02/12 02:42:41;;;;;;;;;;;1.10;99.90;;;;;;5017618;28;19960;-76
2022/02/12 02:45:08;;;;;;;;;;;1.00;99.90;;;;;;5033927;28;20050;-76
2022/02/12 02:47:36;;;;;;;;;;;1.00;99.90;;;;;;5001191;28;19916;-76
2022/02/12 02:50:02;;;;;;;;;;;1.00;99.90;;;;;;5017511;28;19909;-76
2022/02/12 02:57:57;;;;;;;;;;;1.10;99.90;;;;;;5032964;28;19917;-76
2022/02/12 03:00:23;;;;;;;;;;;0.90;99.90;;;;;;5017367;28;19919;-76
2022/02/12 03:02:48;;;;;;;;;;;0.70;99.90;;;;;;5017041;28;19909;-76
2022/02/12 03:05:14;;;;;;;;;;;0.70;99.90;;;;;;5035089;28;19916;-76
2022/02/12 03:07:40;;;;;;;;;;;0.60;99.90;;;;;;5017185;28;19915;-76
2022/02/12 03:10:08;;;;;;;;;;;0.70;99.90;;;;;;5034957;28;20012;-76
2022/02/12 03:12:34;;;;;;;;;;;0.70;99.90;;;;;;5017019;28;19999;-76
2022/02/12 03:15:00;;;;;;;;;;;0.80;99.90;;;;;;5034817;28;19940;-76
2022/02/12 03:17:25;;;;;;;;;;;1.00;99.90;;;;;;5033394;28;20228;-76
2022/02/12 03:19:51;;;;;;;;;;;1.00;99.90;;;;;;5034673;28;19909;-76
2022/02/12 03:22:17;;;;;;;;;;;0.90;99.90;;;;;;5016567;28;19913;-76
2022/02/12 03:24:44;;;;;;;;;;;0.80;99.90;;;;;;5016986;28;20285;-76
2022/02/12 03:27:09;;;;;;;;;;;0.80;99.90;;;;;;5017035;28;19916;-76
2022/02/12 03:29:35;;;;;;;;;;;0.80;99.90;;;;;;5016795;28;19992;-76
2022/02/12 03:32:01;;;;;;;;;;;0.80;99.90;;;;;;5034455;28;19917;-76
2022/02/12 03:34:26;;;;;;;;;;;0.70;99.90;;;;;;5034369;28;19910;-76
2022/02/12 03:36:52;;;;;;;;;;;0.60;99.90;;;;;;5016422;28;19913;-76
2022/02/12 03:39:18;;;;;;;;;;;0.50;99.90;;;;;;5016569;28;19916;-76
2022/02/12 03:41:43;;;;;;;;;;;0.50;99.90;;;;;;5033980;28;19913;-76
2022/02/12 03:44:09;;;;;;;;;;;0.20;99.90;;;;;;5016587;28;19962;-76
2022/02/12 03:46:35;;;;;;;;;;;0.30;99.90;;;;;;5000165;28;19916;-76
2022/02/12 03:49:01;;;;;;;;;;;0.40;99.90;;;;;;5032936;28;20003;-76
2022/02/12 03:51:26;;;;;;;;;;;0.40;99.90;;;;;;5016497;28;20470;-76
2022/02/12 03:53:52;;;;;;;;;;;0.40;99.90;;;;;;5016229;28;20381;-76
2022/02/12 03:56:18;;;;;;;;;;;0.30;99.90;;;;;;5033797;28;19909;-76
2022/02/12 03:58:47;;;;;;;;;;;0.20;99.90;;;;;;4999878;28;20388;-76
2022/02/12 04:01:13;;;;;;;;;;;0.40;99.90;;;;;;4999912;28;19913;-76
2022/02/12 04:03:39;;;;;;;;;;;0.30;99.90;;;;;;5015938;28;19909;-76
2022/02/12 04:06:05;;;;;;;;;;;0.20;99.90;;;;;;5033654;28;20361;-76
2022/02/12 04:08:30;;;;;;;;;;;0.20;99.90;;;;;;5033134;28;19916;-76
2022/02/12 04:10:56;;;;;;;;;;;0.20;99.90;;;;;;5015463;28;19909;-76
2022/02/12 04:13:22;;;;;;;;;;;0.20;99.90;;;;;;5015937;28;19910;-76
2022/02/12 04:15:48;;;;;;;;;;;0.30;99.90;;;;;;5032511;28;19909;-76
2022/02/12 04:18:14;;;;;;;;;;;0.30;99.90;;;;;;5032823;28;19913;-76
2022/02/12 04:20:40;;;;;;;;;;;0.30;99.90;;;;;;5033971;28;19913;-76
2022/02/12 04:23:06;;;;;;;;;;;0.30;99.90;;;;;;5016018;28;20284;-76
2022/02/12 04:25:32;;;;;;;;;;;0.20;99.90;;;;;;5033856;28;19948;-76
2022/02/12 04:28:01;;;;;;;;;;;0.30;99.90;;;;;;5016165;28;19945;-76
2022/02/12 04:30:27;;;;;;;;;;;0.20;99.90;;;;;;5032581;28;19913;-76
2022/02/12 04:32:53;;;;;;;;;;;0.30;99.90;;;;;;5033610;28;20323;-76
2022/02/12 04:35:18;;;;;;;;;;;0.10;99.90;;;;;;5015993;28;19932;-76
2022/02/12 04:37:44;;;;;;;;;;;0.00;99.90;;;;;;5015991;28;19959;-76
2022/02/12 04:40:10;;;;;;;;;;;0.10;99.90;;;;;;5015825;28;19909;-76
2022/02/12 04:42:36;;;;;;;;;;;0.00;99.90;;;;;;5032947;28;20447;-76
2022/02/12 04:45:02;;;;;;;;;;;0.00;99.90;;;;;;5033336;28;20086;-76
2022/02/12 04:47:29;;;;;;;;;;;0.10;99.90;;;;;;5015587;28;19909;-76
2022/02/12 04:49:55;;;;;;;;;;;0.20;99.90;;;;;;5033339;28;19909;-76
2022/02/12 04:52:21;;;;;;;;;;;0.30;99.90;;;;;;5031518;28;19932;-76
2022/02/12 04:54:47;;;;;;;;;;;0.10;99.90;;;;;;5015826;28;20266;-76
2022/02/12 04:57:13;;;;;;;;;;;0.10;99.90;;;;;;5032528;28;19960;-76
2022/02/12 04:59:38;;;;;;;;;;;0.20;99.90;;;;;;5015208;28;19917;-76
2022/02/12 05:02:04;;;;;;;;;;;0.10;99.90;;;;;;5033045;28;19931;-76
2022/02/12 05:04:30;;;;;;;;;;;-0.10;99.90;;;;;;5015479;28;19916;-76
2022/02/12 05:06:56;;;;;;;;;;;-0.10;99.90;;;;;;4998739;28;19917;-76
2022/02/12 05:09:22;;;;;;;;;;;0.00;99.90;;;;;;5015306;28;19909;-76
2022/02/12 05:11:48;;;;;;;;;;;0.00;99.90;;;;;;5015229;28;19922;-76
2022/02/12 05:14:14;;;;;;;;;;;0.20;99.90;;;;;;4998708;28;19968;-76
2022/02/12 05:16:40;;;;;;;;;;;0.00;99.90;;;;;;4998592;28;19913;-76
2022/02/12 05:19:06;;;;;;;;;;;-0.10;99.90;;;;;;5015275;28;19959;-76
2022/02/12 05:21:31;;;;;;;;;;;-0.10;99.90;;;;;;5032475;28;19909;-76
2022/02/12 05:23:57;;;;;;;;;;;-0.20;99.90;;;;;;5031564;28;19945;-76
2022/02/12 05:26:23;;;;;;;;;;;-0.20;99.90;;;;;;5032565;28;19946;-76
2022/02/12 05:28:49;;;;;;;;;;;-0.30;99.90;;;;;;5032584;28;19917;-76
2022/02/12 05:31:15;;;;;;;;;;;-0.40;99.90;;;;;;5015144;28;19909;-76
2022/02/12 05:33:40;;;;;;;;;;;-0.40;99.90;;;;;;5032687;28;19910;-76
2022/02/12 05:36:10;;;;;;;;;;;-0.50;99.90;;;;;;5032349;28;20052;-76
2022/02/12 05:38:39;;;;;;;;;;;-0.50;99.90;;;;;;5031321;28;19909;-76
2022/02/12 05:41:08;;;;;;;;;;;-0.60;99.90;;;;;;5032960;28;20374;-76
2022/02/12 05:43:34;;;;;;;;;;;-0.70;99.90;;;;;;5032581;28;19916;-76
2022/02/12 05:46:00;;;;;;;;;;;-0.80;99.90;;;;;;5014714;28;20309;-76
2022/02/12 05:48:26;;;;;;;;;;;-0.80;99.90;;;;;;5014924;28;19976;-76
2022/02/12 05:50:52;;;;;;;;;;;-0.90;99.90;;;;;;5014585;28;19917;-76
2022/02/12 05:53:17;;;;;;;;;;;-0.90;99.90;;;;;;5014972;28;19913;-76
2022/02/12 05:55:43;;;;;;;;;;;-0.80;99.90;;;;;;4998339;28;19980;-76
2022/02/12 05:58:09;;;;;;;;;;;-0.80;99.90;;;;;;5014526;28;19924;-76
2022/02/12 06:00:34;;;;;;;;;;;-0.60;99.90;;;;;;5014905;28;19913;-76
2022/02/12 06:03:02;;;;;;;;;;;-0.50;99.90;;;;;;5014717;28;19940;-76
2022/02/12 06:05:28;;;;;;;;;;;-0.60;99.90;;;;;;5030535;28;19932;-76
2022/02/12 06:07:53;;;;;;;;;;;-0.60;99.90;;;;;;5031026;28;19909;-76
2022/02/12 06:10:21;;;;;;;;;;;-0.60;99.90;;;;;;4998145;28;20365;-76
2022/02/12 06:12:47;;;;;;;;;;;-0.70;99.90;;;;;;5014635;28;19916;-76
2022/02/12 06:15:12;;;;;;;;;;;-0.60;99.90;;;;;;5014596;28;20308;-76
2022/02/12 06:17:38;;;;;;;;;;;-0.50;99.90;;;;;;5031935;28;20051;-76
2022/02/12 06:20:04;;;;;;;;;;;-0.60;99.90;;;;;;5032325;28;19916;-76
2022/02/12 06:22:29;;;;;;;;;;;-0.50;99.90;;;;;;5014418;28;20019;-76
2022/02/12 06:24:55;;;;;;;;;;;-0.50;99.90;;;;;;5032521;28;19909;-76
2022/02/12 06:27:21;;;;;;;;;;;-0.60;99.90;;;;;;5014393;28;20360;-76
2022/02/12 06:29:47;;;;;;;;;;;-0.70;99.90;;;;;;4998142;28;19913;-76
2022/02/12 06:32:12;;;;;;;;;;;-1.00;99.90;;;;;;5032408;28;20278;-76
2022/02/12 06:34:38;;;;;;;;;;;-1.00;99.90;;;;;;5035701;28;20266;-76
2022/02/12 06:37:04;;;;;;;;;;;-0.90;99.90;;;;;;5035315;28;19913;-76
2022/02/12 06:39:30;;;;;;;;;;;-1.00;99.90;;;;;;5017782;28;19913;-76
2022/02/12 06:41:56;;;;;;;;;;;-0.90;99.90;;;;;;5017717;28;19909;-76
2022/02/12 06:44:22;;;;;;;;;;;-0.60;99.90;;;;;;5034200;28;19909;-76
2022/02/12 06:46:49;;;;;;;;;;;-0.40;99.90;;;;;;5017391;28;19917;-76
2022/02/12 06:49:15;;;;;;;;;;;-0.10;99.90;;;;;;5035676;28;19916;-76
2022/02/12 06:51:40;;;;;;;;;;;-0.20;99.90;;;;;;5017652;28;19909;-76
2022/02/12 06:54:06;;;;;;;;;;;-0.30;99.90;;;;;;5035368;28;19916;-76
2022/02/12 06:56:32;;;;;;;;;;;-0.30;99.90;;;;;;5035151;28;19924;-76
2022/02/12 06:58:57;;;;;;;;;;;-0.20;99.90;;;;;;5034416;28;20071;-77
2022/02/12 07:01:26;;;;;;;;;;;0.00;99.90;;;;;;5017892;28;20392;-77
2022/02/12 07:03:55;;;;;;;;;;;0.10;99.90;;;;;;5035272;28;19910;-76
2022/02/12 07:06:20;;;;;;;;;;;0.00;99.90;;;;;;5034881;28;20363;-76
2022/02/12 07:08:46;;;;;;;;;;;0.10;99.90;;;;;;5034042;28;19959;-76
2022/02/12 07:11:12;;;;;;;;;;;0.10;99.90;;;;;;5033830;28;19909;-76
2022/02/12 07:13:37;;;;;;;;;;;0.30;99.90;;;;;;5017212;28;19913;-76
2022/02/12 07:16:04;;;;;;;;;;;0.20;99.90;;;;;;5017116;28;20018;-76
2022/02/12 07:18:29;;;;;;;;;;;0.10;99.90;;;;;;5000715;28;19919;-76
2022/02/12 07:20:55;;;;;;;;;;;0.20;99.90;;;;;;5035044;28;19913;-76
2022/02/12 07:23:21;;;;;;;;;;;0.30;99.90;;;;;;5016833;28;20274;-76
2022/02/12 07:25:46;;;;;;;;;;;0.30;99.90;;;;;;5034788;28;19909;-76
2022/02/12 07:28:12;;;;;;;;;;;0.40;99.90;;;;;;5035064;28;19936;-76
2022/02/12 07:30:38;;;;;;;;;;;0.50;99.90;;;;;;5034693;28;19958;-76
2022/02/12 07:33:04;;;;;;;;;;;0.50;99.90;;;;;;5035024;28;19909;-76
2022/02/12 07:35:30;;;;;;;;;;;0.50;99.90;;;;;;5016852;28;19916;-76
2022/02/12 07:37:55;;;;;;;;;;;0.40;99.90;;;;;;5050200;28;19920;-76
2022/02/12 07:40:21;;;;;;;;;;;0.50;99.90;;;;;;5036557;28;19999;-76
2022/02/12 07:42:47;;;;;;;;;;;0.60;99.90;;;;;;5036005;28;19976;-75
2022/02/12 07:45:14;;;;;;;;;;;0.70;99.90;;;;;;5044203;28;19917;-76
2022/02/12 07:47:40;;;;;;;;;;;0.70;99.90;;;;;;5036538;28;19966;-76
2022/02/12 07:50:06;;;;;;;;;;;0.60;99.90;;;;;;5054786;28;19909;-76
2022/02/12 07:52:33;;;;;;;;;;;0.50;99.90;;;;;;5033097;28;19959;-76
2022/02/12 07:54:59;;;;;;;;;;;0.50;99.90;;;;;;5016430;28;19959;-76
2022/02/12 07:57:25;;;;;;;;;;;0.60;99.90;;;;;;5036545;28;19913;-76
2022/02/12 07:59:52;;;;;;;;;;;0.60;99.90;;;;;;5036199;28;19963;-76
2022/02/12 08:02:18;;;;;;;;;;;0.50;99.90;;;;;;5036778;28;19991;-76
2022/02/12 08:04:44;;;;;;;;;;;0.60;99.90;;;;;;5054276;28;19909;-76
2022/02/12 08:07:27;;;;;;;;;;;0.80;99.90;;;;;;5036035;28;19916;-76
2022/02/12 08:09:57;;;;;;;;;;;0.70;99.90;;;;;;5052418;28;19964;-76
2022/02/12 08:12:23;;;;;;;;;;;0.60;99.90;;;;;;5035994;28;20320;-76
2022/02/12 08:14:52;;;;;;;;;;;0.50;99.90;;;;;;5053619;28;19909;-76
2022/02/12 08:17:19;;;;;;;;;;;0.70;99.90;;;;;;5053191;28;20341;-76
2022/02/12 08:19:46;;;;;;;;;;;0.70;99.90;;;;;;5022000;28;19916;-76
2022/02/12 08:22:12;;;;;;;;;;;0.90;99.90;;;;;;5035283;28;19913;-76
2022/02/12 08:24:38;;;;;;;;;;;1.00;99.90;;;;;;5052170;28;19950;-76
2022/02/12 08:27:04;;;;;;;;;;;1.00;99.90;;;;;;5017762;28;19916;-76
2022/02/12 08:29:30;;;;;;;;;;;1.10;99.90;;;;;;5035796;28;19909;-76
2022/02/12 08:31:56;;;;;;;;;;;1.20;99.90;;;;;;5053561;28;20368;-76
2022/02/12 08:34:23;;;;;;;;;;;1.30;99.90;;;;;;5052000;28;20016;-76
2022/02/12 08:36:49;;;;;;;;;;;1.30;99.90;;;;;;5038317;28;20323;-76
2022/02/12 08:39:14;;;;;;;;;;;1.30;99.90;;;;;;5024170;28;19913;-76
2022/02/12 08:41:40;;;;;;;;;;;1.30;99.90;;;;;;5023178;28;20296;-76
2022/02/12 08:44:06;;;;;;;;;;;1.40;99.90;;;;;;5052071;28;19916;-76
2022/02/12 08:46:31;;;;;;;;;;;1.30;99.90;;;;;;5050458;28;19909;-76
2022/02/12 08:48:58;;;;;;;;;;;1.30;99.90;;;;;;5034053;28;20440;-76
2022/02/12 08:51:24;;;;;;;;;;;1.20;99.90;;;;;;5051335;28;19948;-75
2022/02/12 08:53:50;;;;;;;;;;;1.20;99.90;;;;;;5052270;28;19971;-76
2022/02/12 08:56:16;;;;;;;;;;;1.40;99.90;;;;;;5033155;28;19909;-76
2022/02/12 08:58:41;;;;;;;;;;;1.50;99.90;;;;;;5034682;28;20031;-76
2022/02/12 09:01:08;;;;;;;;;;;1.50;99.90;;;;;;5051326;28;19970;-76
2022/02/12 09:03:34;;;;;;;;;;;1.50;99.90;;;;;;5052443;28;19909;-76
2022/02/12 09:05:59;;;;;;;;;;;1.70;99.90;;;;;;5052170;28;20292;-76
2022/02/12 09:08:25;;;;;;;;;;;1.70;99.90;;;;;;5018187;28;19990;-76
2022/02/12 09:10:51;;;;;;;;;;;1.80;99.90;;;;;;5052426;28;19915;-75
2022/02/12 09:13:16;;;;;;;;;;;1.80;99.90;;;;;;5051234;28;19909;-76
2022/02/12 09:15:42;;;;;;;;;;;1.90;99.90;;;;;;5017855;28;19944;-76
2022/02/12 09:18:08;;;;;;;;;;;2.00;99.90;;;;;;5034530;28;19913;-76
2022/02/12 09:20:33;;;;;;;;;;;2.00;99.90;;;;;;5034741;28;19916;-75
2022/02/12 09:22:59;;;;;;;;;;;2.10;99.90;;;;;;5052126;28;19909;-75
2022/02/12 09:25:25;;;;;;;;;;;2.10;99.90;;;;;;5034446;28;19971;-76
2022/02/12 09:27:50;;;;;;;;;;;2.20;99.90;;;;;;5018018;28;19915;-76
2022/02/12 09:30:16;;;;;;;;;;;2.20;99.90;;;;;;5034411;28;19913;-76
2022/02/12 09:32:42;;;;;;;;;;;2.30;99.90;;;;;;5052123;28;19916;-76
2022/02/12 09:35:08;;;;;;;;;;;2.40;99.90;;;;;;5034289;28;19913;-76
2022/02/12 09:37:33;;;;;;;;;;;2.60;99.90;;;;;;5050778;28;19971;-76
2022/02/12 09:39:59;;;;;;;;;;;2.70;99.90;;;;;;5050762;28;19913;-75
2022/02/12 09:42:25;;;;;;;;;;;2.70;99.90;;;;;;5034344;28;19909;-75
2022/02/12 09:44:51;;;;;;;;;;;2.70;99.90;;;;;;5034375;28;20365;-76
2022/02/12 09:47:32;;;;;;;;;;;2.80;99.90;;;;;;5034140;28;19913;-76
2022/02/12 09:49:57;;;;;;;;;;;2.90;99.90;;;;;;5050512;28;20015;-76
2022/02/12 09:52:27;;;;;;;;;;;3.10;99.90;;;;;;5017469;28;19948;-75
2022/02/12 09:54:53;;;;;;;;;;;3.30;99.90;;;;;;5050553;28;19908;-75
2022/02/12 09:57:18;;;;;;;;;;;3.70;99.10;;;;;;5017250;28;20424;-76
2022/02/12 09:59:44;;;;;;;;;;;4.20;97.60;;;;;;5033748;28;19916;-75
2022/02/12 10:02:16;;;;;;;;;;;4.80;94.80;;;;;;5050922;28;19959;-76
2022/02/12 10:04:41;;;;;;;;;;;5.40;93.10;;;;;;5050970;28;19984;-76
2022/02/12 10:07:20;;;;;;;;;;;6.00;90.10;;;;;;5035688;28;19913;-76
2022/02/12 10:09:46;;;;;;;;;;;6.50;84.20;;;;;;5054433;28;19913;-76
2022/02/12 10:12:20;;;;;;;;;;;7.20;80.70;;;;;;5022303;28;19909;-76
2022/02/12 10:14:45;;;;;;;;;;;7.60;76.10;;;;;;5038564;28;19909;-77
2022/02/12 10:17:15;;;;;;;;;;;7.70;74.40;;;;;;5054369;28;20431;-76
2022/02/12 10:19:44;;;;;;;;;;;7.90;72.20;;;;;;5038002;28;20335;-76
2022/02/12 10:22:12;;;;;;;;;;;8.20;69.60;;;;;;5038110;28;19915;-77
2022/02/12 10:25:03;;;;;;;;;;;8.80;67.10;;;;;;5054583;28;20292;-76
2022/02/12 10:27:29;;;;;;;;;;;9.10;64.10;;;;;;5037963;28;19913;-76
2022/02/12 10:29:58;;;;;;;;;;;9.40;61.90;;;;;;5055527;28;19913;-77
2022/02/12 10:32:25;;;;;;;;;;;9.50;59.70;;;;;;5054276;28;19909;-76
2022/02/12 10:34:52;;;;;;;;;;;9.60;57.90;;;;;;5054201;28;19909;-76
2022/02/12 10:37:20;;;;;;;;;;;9.90;59.40;;;;;;5055172;28;20085;-76
2022/02/12 10:39:55;;;;;;;;;;;10.00;57.60;;;;;;5055454;28;19909;-76
2022/02/12 10:42:21;;;;;;;;;;;9.70;56.70;;;;;;5037418;28;20329;-76
2022/02/12 10:44:47;;;;;;;;;;;9.70;56.10;;;;;;5037645;28;19915;-76
2022/02/12 10:47:13;;;;;;;;;;;10.00;54.60;;;;;;5037154;28;19913;-76
2022/02/12 10:49:40;;;;;;;;;;;10.40;54.10;;;;;;5037285;28;19987;-77
2022/02/12 10:52:06;;;;;;;;;;;10.60;54.20;;;;;;5037074;28;19913;-76
2022/02/12 10:54:43;;;;;;;;;;;10.80;53.00;;;;;;5054886;28;19916;-77
2022/02/12 10:59:41;;;;;;;;;;;11.00;50.90;;;;;;5073053;28;19924;-76
2022/02/12 11:02:15;;;;;;;;;;;11.00;51.20;;;;;;5075726;28;19908;-75
2022/02/12 11:04:42;;;;;;;;;;;11.20;50.70;;;;;;5037263;28;20060;-75
2022/02/12 11:07:12;;;;;;;;;;;11.30;50.60;;;;;;5037249;28;19995;-77
2022/02/12 11:09:37;;;;;;;;;;;11.10;49.80;;;;;;5037355;28;19908;-76
2022/02/12 11:12:04;;;;;;;;;;;11.20;50.90;;;;;;5037154;28;19909;-76
2022/02/12 11:14:33;;;;;;;;;;;11.30;50.10;;;;;;5037346;28;19909;-76
2022/02/12 11:17:00;;;;;;;;;;;11.10;49.70;;;;;;5037054;28;20379;-77
2022/02/12 11:19:26;;;;;;;;;;;11.50;50.00;;;;;;5036800;28;19908;-76
2022/02/12 11:21:52;;;;;;;;;;;11.30;48.30;;;;;;5020916;28;19913;-77
2022/02/12 11:24:32;;;;;;;;;;;11.30;49.10;;;;;;5037633;28;19908;-77
2022/02/12 11:26:58;;;;;;;;;;;12.00;49.00;;;;;;5020305;28;19913;-76
2022/02/12 11:29:34;;;;;;;;;;;12.00;48.30;;;;;;5037181;28;19915;-76
2022/02/12 11:32:10;;;;;;;;;;;11.60;49.40;;;;;;5036812;28;19909;-76
2022/02/12 11:34:36;;;;;;;;;;;12.00;49.90;;;;;;5020413;28;20384;-77
2022/02/12 11:37:12;;;;;;;;;;;12.30;49.80;;;;;;5053123;28;19944;-77
2022/02/12 11:39:38;;;;;;;;;;;12.40;50.10;;;;;;5054728;28;19915;-76
2022/02/12 11:42:05;;;;;;;;;;;12.80;50.70;;;;;;5036977;28;19909;-76
2022/02/12 11:44:41;;;;;;;;;;;13.10;49.50;;;;;;5036939;28;19909;-77
2022/02/12 11:47:07;;;;;;;;;;;13.70;49.50;;;;;;5020110;28;20293;-77
2022/02/12 11:49:34;;;;;;;;;;;14.10;47.50;;;;;;5020010;28;20368;-77
2022/02/12 11:52:06;;;;;;;;;;;13.80;47.90;;;;;;5020031;28;20371;-77
2022/02/12 11:54:41;;;;;;;;;;;14.10;48.20;;;;;;5054269;28;19923;-76
2022/02/12 11:57:06;;;;;;;;;;;14.00;47.50;;;;;;5019813;28;20265;-76
2022/02/12 11:59:32;;;;;;;;;;;14.00;47.50;;;;;;5036451;28;19932;-77
2022/02/12 12:01:58;;;;;;;;;;;13.80;47.40;;;;;;5054119;28;19916;-76
2022/02/12 12:04:26;;;;;;;;;;;13.90;48.50;;;;;;5053836;28;19909;-77
2022/02/12 12:06:57;;;;;;;;;;;14.30;48.30;;;;;;5036297;28;19909;-77
2022/02/12 12:09:23;;;;;;;;;;;14.20;47.40;;;;;;5036325;28;19909;-76
2022/02/12 12:12:07;;;;;;;;;;;14.30;47.40;;;;;;5035947;28;19909;-76
2022/02/12 12:14:33;;;;;;;;;;;13.90;46.60;;;;;;5019275;28;19908;-77
2022/02/12 12:17:00;;;;;;;;;;;13.30;49.10;;;;;;5053434;28;20275;-76
2022/02/12 12:19:26;;;;;;;;;;;13.40;49.10;;;;;;5035968;28;19908;-77
2022/02/12 12:21:59;;;;;;;;;;;14.10;48.20;;;;;;5053794;28;19913;-77
2022/02/12 12:24:25;;;;;;;;;;;14.10;47.00;;;;;;5035664;28;20370;-77
2022/02/12 12:26:50;;;;;;;;;;;13.70;47.50;;;;;;5019362;28;19909;-76
2022/02/12 12:32:03;;;;;;;;;;;13.60;48.20;;;;;;5052997;28;20360;-77
2022/02/12 12:34:30;;;;;;;;;;;13.20;48.40;;;;;;5019185;28;19909;-76
2022/02/12 12:36:59;;;;;;;;;;;13.50;48.70;;;;;;5035229;28;19912;-76
2022/02/12 12:39:34;;;;;;;;;;;13.70;47.90;;;;;;5018627;28;19916;-76
2022/02/12 12:42:00;;;;;;;;;;;13.30;48.10;;;;;;5018802;28;19916;-76
2022/02/12 12:44:27;;;;;;;;;;;13.50;47.70;;;;;;5018789;28;19909;-76
2022/02/12 12:46:54;;;;;;;;;;;13.80;47.40;;;;;;5035185;28;19908;-76
2022/02/12 12:49:26;;;;;;;;;;;14.20;46.30;;;;;;5018914;28;19916;-76
2022/02/12 12:51:52;;;;;;;;;;;13.90;46.30;;;;;;5035236;28;19974;-77
2022/02/12 12:54:31;;;;;;;;;;;14.00;46.90;;;;;;5035001;28;19908;-77
2022/02/12 12:56:58;;;;;;;;;;;14.30;45.90;;;;;;5035077;28;19975;-76
2022/02/12 12:59:23;;;;;;;;;;;14.10;45.60;;;;;;5035325;28;20407;-76
2022/02/12 13:01:58;;;;;;;;;;;14.20;45.80;;;;;;5035376;28;19908;-77
2022/02/12 13:04:24;;;;;;;;;;;14.50;45.10;;;;;;5053185;28;19909;-77
2022/02/12 13:06:51;;;;;;;;;;;14.40;45.20;;;;;;5034897;28;20383;-76
2022/02/12 13:09:17;;;;;;;;;;;14.40;45.40;;;;;;5052776;28;19919;-76
2022/02/12 13:11:43;;;;;;;;;;;14.00;45.80;;;;;;5052860;28;20301;-76
2022/02/12 13:14:09;;;;;;;;;;;14.70;45.10;;;;;;5034846;28;19916;-76
2022/02/12 13:16:35;;;;;;;;;;;15.00;44.10;;;;;;5034685;28;19909;-76
2022/02/12 13:19:03;;;;;;;;;;;14.50;44.40;;;;;;5034899;28;19916;-76
2022/02/12 13:21:29;;;;;;;;;;;14.40;45.10;;;;;;5052582;28;20376;-76
2022/02/12 13:24:00;;;;;;;;;;;13.30;46.10;;;;;;5052550;28;19916;-76
2022/02/12 13:26:26;;;;;;;;;;;13.00;47.10;;;;;;5034531;28;19909;-76
2022/02/12 13:28:52;;;;;;;;;;;12.50;48.00;;;;;;5052547;28;19913;-76
2022/02/12 13:31:20;;;;;;;;;;;12.20;49.10;;;;;;5052374;28;19915;-76
2022/02/12 13:33:55;;;;;;;;;;;12.30;49.30;;;;;;5034297;28;19996;-76
2022/02/12 13:36:21;;;;;;;;;;;12.00;49.00;;;;;;5018096;28;19916;-76
2022/02/12 13:38:47;;;;;;;;;;;11.10;50.70;;;;;;5034527;28;20372;-76
2022/02/12 13:41:12;;;;;;;;;;;10.80;51.80;;;;;;5035283;28;19913;-76
2022/02/12 13:43:47;;;;;;;;;;;10.30;53.00;;;;;;5022265;28;20016;-76
2022/02/12 13:46:18;;;;;;;;;;;10.00;53.80;;;;;;5056255;28;20323;-77
2022/02/12 13:48:43;;;;;;;;;;;9.60;54.70;;;;;;5061448;28;19909;-77
2022/02/12 13:51:11;;;;;;;;;;;9.60;54.70;;;;;;5038869;28;19908;-80
2022/02/12 13:53:52;;;;;;;;;;;9.60;55.00;;;;;;5038638;28;20372;-76
2022/02/12 13:56:18;;;;;;;;;;;9.40;55.10;;;;;;5038269;28;20410;-76
2022/02/12 13:58:44;;;;;;;;;;;9.40;55.20;;;;;;5054816;28;19917;-76
2022/02/12 14:01:10;;;;;;;;;;;9.30;55.30;;;;;;5055664;28;19916;-76
2022/02/12 14:03:37;;;;;;;;;;;9.40;55.80;;;;;;5018156;28;19917;-77
2022/02/12 14:06:05;;;;;;;;;;;9.30;55.30;;;;;;5040879;28;19909;-76
2022/02/12 14:08:31;;;;;;;;;;;9.00;55.30;;;;;;5052909;28;19909;-77
2022/02/12 14:10:57;;;;;;;;;;;8.60;57.00;;;;;;5004388;28;19932;-76
2022/02/12 14:13:23;;;;;;;;;;;8.50;57.40;;;;;;5019451;28;19909;-76
2022/02/12 14:15:49;;;;;;;;;;;8.20;58.10;;;;;;5054157;28;20284;-76
2022/02/12 14:18:15;;;;;;;;;;;8.20;58.60;;;;;;5037648;28;19913;-76
2022/02/12 14:20:42;;;;;;;;;;;8.30;58.20;;;;;;5021290;28;20365;-76
2022/02/12 14:23:08;;;;;;;;;;;8.20;58.30;;;;;;5036940;28;19908;-76
2022/02/12 14:25:35;;;;;;;;;;;8.00;59.30;;;;;;5036763;28;19936;-77
2022/02/12 14:28:01;;;;;;;;;;;8.00;59.30;;;;;;5037584;28;19915;-76
2022/02/12 14:30:27;;;;;;;;;;;8.00;58.50;;;;;;5037560;28;19995;-76
2022/02/12 14:32:53;;;;;;;;;;;8.00;58.10;;;;;;5047828;28;19910;-76
2022/02/12 14:35:18;;;;;;;;;;;7.80;58.80;;;;;;5034041;28;19909;-76